FW5828 Weather Reports


Display with metric or nautical units.
time (UTC)temp
F
wind
direction
speed
MPH
gust
MPH
rain 1hr
in
rain 24hr
in
rain mn
in
humidity
%
barometer
mb
20191016133227 38 221 0.0 2.0 0.00 0.00 0.00 62 1030.2
20191016130250 38 221 0.0 1.0 0.00 0.00 0.00 61 1029.7
20191016123239 38 221 0.0 1.0 0.00 0.00 0.00 61 1029.6
20191016120242 39 221 0.0 0.0 0.00 0.00 0.00 59 1029.5
20191016113236 39 221 0.0 1.0 0.00 0.00 0.00 60 1029.5
20191016110226 40 221 0.0 1.0 0.00 0.00 0.00 57 1029.5
20191016103240 40 221 0.0 2.0 0.00 0.00 0.00 57 1029.2
20191016100242 41 221 0.0 2.0 0.00 0.00 0.00 55 1029.1
20191016093248 40 220 0.0 0.0 0.00 0.00 0.00 56 1029.4
20191016090240 41 220 0.0 2.0 0.00 0.00 0.00 54 1029.4
20191016083235 42 220 0.0 1.0 0.00 0.00 0.00 53 1029.5
20191016080232 42 220 0.0 1.0 0.00 0.00 0.00 51 1029.4
20191016073227 43 220 0.0 1.0 0.00 0.00 0.00 51 1029.1
20191016070249 44 220 0.0 1.0 0.00 0.00 0.00 50 1029.1
20191016063238 45 220 0.0 1.0 0.00 0.00 0.00 49 1029.2
20191016060238 46 220 0.0 1.0 0.00 0.00 0.00 49 1029.1
20191016053225 47 220 0.0 1.0 0.00 0.00 0.00 47 1029.0
20191016050228 49 220 0.0 2.0 0.00 0.00 0.00 45 1028.9
20191016043245 49 220 0.0 2.0 0.00 0.00 0.00 44 1028.5
20191016040238 51 220 1.0 2.0 0.00 0.00 0.00 42 1028.2
20191016033241 52 209 1.0 2.0 0.00 0.00 0.00 41 1028.3
20191016030223 55 209 0.0 1.0 0.00 0.00 0.00 36 1028.4
20191016023234 56 208 1.0 2.0 0.00 0.00 0.00 36 1028.2
20191016020237 59 213 1.0 2.0 0.00 0.00 0.00 34 1028.0
20191016013252 63 213 0.0 1.0 0.00 0.00 0.00 29 1027.8
20191016010238 68 360 0.0 1.0 0.00 0.00 0.00 23 1027.6
20191016003232 71 213 0.0 2.0 0.00 0.00 0.00 19 1027.2
20191016000234 74 360 1.0 4.0 0.00 0.00 0.00 18 1026.8
20191015233235 76 233 1.0 5.0 0.00 0.00 0.00 16 1026.8
20191015230248 78 202 1.0 4.0 0.00 0.00 0.00 15 1027.0
20191015223226 77 342 2.0 8.0 0.00 0.00 0.00 16 1027.3
20191015220229 78 195 2.0 5.0 0.00 0.00 0.00 16 1027.3
20191015213245 77 223 3.0 7.0 0.00 0.00 0.00 17 1027.4
20191015210243 77 218 1.0 6.0 0.00 0.00 0.00 18 1027.4
20191015203259 76 140 3.0 7.0 0.00 0.00 0.00 20 1027.7
20191015200242 75 344 1.0 6.0 0.00 0.00 0.00 21 1028.1
20191015193237 75 198 1.0 5.0 0.00 0.00 0.00 23 1028.6
20191015190239 73 221 2.0 8.0 0.00 0.00 0.00 25 1028.8
20191015183227 72 192 4.0 7.0 0.00 0.00 0.00 24 1029.1
20191015180229 69 9 4.0 7.0 0.00 0.00 0.00 28 1029.2
20191015173239 66 11 1.0 6.0 0.00 0.00 0.00 34 1029.3
20191015170239 62 360 2.0 6.0 0.00 0.00 0.00 44 1029.5
20191015163233 59 360 1.0 6.0 0.00 0.00 0.00 52 1029.8
20191015160236 55 175 0.0 2.0 0.00 0.00 0.00 61 1029.8
20191015153306 49 175 0.0 1.0 0.00 0.00 0.00 75 1029.7
20191015150234 43 176 0.0 0.0 0.00 0.00 0.00 83 1029.3
20191015143226 41 176 0.0 0.0 0.00 0.00 0.00 86 1029.0
20191015140229 38 176 0.0 1.0 0.00 0.00 0.00 88 1028.7